Delray Beach, FL

5:04 PM EDT on September 01, 2014 (GMT -0400)
Lake Ida | Change Station
CLOSE
Current Station
Personal Weather Station
Location: Delray Beach, FL
Elevation: 10 ft
Nearby Weather Stations

Elev 10 ft 26.47 °N, 80.08 °W | Updated 4 seconds ago

Partly Cloudy
Partly Cloudy
90.7 °F
Feels Like 104 °F
N
0.0
Wind Variable Wind from SE
Gusts 7.0 mph

Today
High -- | Low -- °F
--% Chance of Precip.
Yesterday
High -- | Low -- °F
Precip. -- in
7:00 AM 7:40 PM
Waxing Crescent, 44% visible
Pressure 30.04 in
Visibility 10.0 miles
Clouds Scattered Clouds 2500 ft
Heat Index 104 °F
Dew Point 77 °F
Humidity 64%
Rainfall 0.05 in
Snow Depth Not available.
UV 4 out of 12
Pollen 5.20 out of 12
PM2.5 Moderate
Flu Activity Not available.
METAR KPMP 012053Z 13006KT 10SM SCT025 32/23 A3004 RMK AO2 SLP172 T03170228 56016

More Conditions Fewer Conditions

Pressure 30.04 in
Visibility 10.0 miles
Clouds Scattered Clouds 2500 ft
Heat Index 104 °F
Dew Point 77 °F
Humidity 64%
Rainfall 0.05 in
Snow Depth Not available.
UV 4 out of 12
Pollen 5.20 out of 12
PM2.5 Moderate
Flu Activity Not available.
METAR KPMP 012053Z 13006KT 10SM SCT025 32/23 A3004 RMK AO2 SLP172 T03170228 56016

More Conditions Fewer Conditions

10-Day Weather Forecast

Almanac

Astronomy

Sep. 01, 2014 Rise Set
Actual Time 7:00 AM EDT 7:40 PM EDT
Civil Twilight 6:36 AM EDT 8:03 PM EDT
Nautical Twilight 6:08 AM EDT 8:31 PM EDT
Astronomical Twilight 5:40 AM EDT 8:59 PM EDT
Moon 1:06 PM EDT No Moon Set
Length of Visible Light 13h 26m
Length of Day
12h 39m
Tomorrow will be 1m 29s shorter.
Waxing Crescent, 44% of the Moon is Illuminated
Today
Waxing Crescent
Sep 2
First Quarter
Sep 8
Full
Sep 15
Last Quarter
Sep 24
New

Today's Extremes

State Highs State Lows

Community

WunderPhotos

Upload Photos

1,749,407 photos uploaded!

WunderBlogs® & News

Nearby

Air Quality

  Air Quality AQ Index Pollutant
Yesterday Moderate
PM2.5
Yesterday Good
OZONE
Current Moderate
PM2.5
Monday Good
PM2.5
Tuesday Good
OZONE
Tuesday Good
PM2.5

Snow Depth

Station Depth Elevation
No new snow has been reported.

Earthquake Activity

City Distance Mag. Time & Date
No recent earthquake activity has been reported nearby.
Minimum magnitude displayed is 2.5.

Coastal Water Temperatures

Place Temperature
Lake Worth, FL 88.0 °F
Virginia Key, FL 88.0 °F

Nearby Weather Stations